createdAt,value
2023-03-24T00:02:37.577Z,96435.31
2023-03-24T00:07:41.085Z,96425.22
2023-03-24T00:12:42.895Z,96409.13
2023-03-24T00:17:46.872Z,96393.84
2023-03-24T00:22:56.535Z,96401.63
2023-03-24T00:27:58.233Z,96403.59
2023-03-24T00:33:02.084Z,96396.25
2023-03-24T00:38:03.919Z,96390.22
2023-03-24T00:43:05.719Z,96380.34
2023-03-24T00:48:07.511Z,96372.72
2023-03-24T00:53:10.087Z,96369.75
2023-03-24T00:58:18.027Z,96367.84
2023-03-24T01:03:27.234Z,96365.41
2023-03-24T01:08:29.464Z,96357.59
2023-03-24T01:13:32.173Z,96357.28
2023-03-24T01:18:34.945Z,96352.91
2023-03-24T01:23:37.579Z,96342.72
2023-03-24T01:28:43.689Z,96350.66
2023-03-24T01:33:45.783Z,96363.81
2023-03-24T01:38:47.442Z,96360.41
2023-03-24T01:43:49.183Z,96361.28
2023-03-24T01:48:55.407Z,96380.75
2023-03-24T01:54:09.532Z,96373.81
2023-03-24T01:59:18.236Z,96367.19
2023-03-24T02:04:48.468Z,96384.38
2023-03-24T02:09:50.629Z,96397.53
2023-03-24T02:14:53.448Z,96401.84
2023-03-24T02:19:55.133Z,96387.31
2023-03-24T02:25:29.708Z,96374.75
2023-03-24T02:30:40.278Z,96374.00
2023-03-24T02:36:23.493Z,96368.13
2023-03-24T02:41:40.793Z,96355.09
2023-03-24T02:46:49.290Z,96353.69
2023-03-24T02:52:00.545Z,96346.63
2023-03-24T02:57:12.946Z,96333.03
2023-03-24T03:02:43.524Z,96307.75
2023-03-24T03:07:47.755Z,96290.34
2023-03-24T03:12:54.178Z,96280.59
2023-03-24T03:18:09.124Z,96283.66
2023-03-24T03:23:14.736Z,96267.97
2023-03-24T03:28:21.995Z,96268.44
2023-03-24T03:33:32.101Z,96256.97
2023-03-24T03:38:49.319Z,96250.63
2023-03-24T03:43:52.365Z,96244.00
2023-03-24T03:48:54.369Z,96239.81
2023-03-24T03:54:02.443Z,96232.97
2023-03-24T03:59:07.023Z,96228.81
2023-03-24T04:04:26.248Z,96227.38
2023-03-24T04:10:10.225Z,96222.06
2023-03-24T04:15:35.659Z,96220.28
2023-03-24T04:21:07.592Z,96207.53
2023-03-24T04:26:28.086Z,96212.72
2023-03-24T04:32:02.273Z,96214.22
2023-03-24T04:37:12.409Z,96228.72
2023-03-24T04:42:55.062Z,96232.13
2023-03-24T04:48:05.273Z,96225.19
2023-03-24T04:53:30.843Z,96217.09
2023-03-24T04:58:33.021Z,96230.25
2023-03-24T05:03:38.074Z,96246.75
2023-03-24T05:08:41.286Z,96242.72
2023-03-24T05:13:44.367Z,96256.94
2023-03-24T05:18:46.551Z,96253.09
2023-03-24T05:23:48.723Z,96254.72
2023-03-24T05:28:50.785Z,96279.38
2023-03-24T05:33:53.150Z,96291.97
2023-03-24T05:38:56.882Z,96295.84
2023-03-24T05:44:05.781Z,96304.03
2023-03-24T05:49:07.544Z,96303.63
2023-03-24T05:54:14.327Z,96293.56
2023-03-24T05:59:22.703Z,96294.81
2023-03-24T06:04:24.656Z,96296.16
2023-03-24T06:09:40.848Z,96302.69
2023-03-24T06:14:45.525Z,96291.47
2023-03-24T06:19:50.105Z,96233.03
2023-03-24T06:25:05.658Z,96204.94
2023-03-24T06:30:08.652Z,96221.69
2023-03-24T06:35:10.753Z,96245.28
2023-03-24T06:40:23.816Z,96237.06
2023-03-24T06:45:31.340Z,96231.88
2023-03-24T06:50:35.444Z,96237.97
2023-03-24T06:55:42.535Z,96237.75
2023-03-24T07:00:47.211Z,96251.19
2023-03-24T07:06:09.706Z,96263.94
2023-03-24T07:11:12.349Z,96268.50
2023-03-24T07:16:21.869Z,96268.66
2023-03-24T07:21:31.367Z,96269.63
2023-03-24T07:26:33.569Z,96271.59
2023-03-24T07:31:43.439Z,96280.38
2023-03-24T07:36:48.056Z,96298.66
2023-03-24T07:41:51.936Z,96312.97
2023-03-24T07:47:03.922Z,96335.06
2023-03-24T07:52:06.581Z,96344.31
2023-03-24T07:57:12.692Z,96353.69
2023-03-24T08:02:19.754Z,96337.28
2023-03-24T08:07:35.176Z,96342.19
2023-03-24T08:12:37.172Z,96337.38
2023-03-24T08:17:39.528Z,96333.34
2023-03-24T08:22:43.361Z,96330.97
2023-03-24T08:27:47.072Z,96347.69
2023-03-24T08:32:54.956Z,96348.66
2023-03-24T08:37:59.308Z,96351.28
2023-03-24T08:43:03.788Z,96350.03
2023-03-24T08:48:07.750Z,96356.03
2023-03-24T08:53:11.660Z,96360.41
2023-03-24T08:58:16.284Z,96365.94
2023-03-24T09:03:22.124Z,96373.41
2023-03-24T09:08:25.002Z,96379.75
2023-03-24T09:13:26.705Z,96386.09
2023-03-24T09:18:29.305Z,96387.34
2023-03-24T09:23:31.661Z,96400.97
2023-03-24T09:28:34.218Z,96405.69
2023-03-24T09:33:36.290Z,96409.88
2023-03-24T09:38:38.110Z,96411.66
2023-03-24T09:43:44.725Z,96415.88
2023-03-24T09:48:53.256Z,96430.41
2023-03-24T09:53:59.213Z,96442.31
2023-03-24T09:59:15.359Z,96440.56
2023-03-24T10:04:20.977Z,96443.22
2023-03-24T10:09:30.476Z,96442.31
2023-03-24T10:14:45.083Z,96432.69
2023-03-24T10:20:00.685Z,96456.06
2023-03-24T10:25:37.489Z,96443.50
2023-03-24T10:30:44.099Z,96439.91
2023-03-24T10:36:09.865Z,96440.69
2023-03-24T10:41:26.091Z,96428.22
2023-03-24T10:46:31.380Z,96413.63
2023-03-24T10:51:36.657Z,96404.25
2023-03-24T10:56:41.464Z,96381.22
2023-03-24T11:01:43.797Z,96354.72
2023-03-24T11:07:02.710Z,96321.84
2023-03-24T11:12:04.772Z,96308.16
2023-03-24T11:17:15.492Z,96377.25
2023-03-24T11:22:17.419Z,96395.75
2023-03-24T11:27:19.983Z,96380.31
2023-03-24T11:32:25.213Z,96385.94
2023-03-24T11:37:36.362Z,96387.19
2023-03-24T11:42:44.773Z,96377.78
2023-03-24T11:47:48.201Z,96355.13
2023-03-24T11:52:58.132Z,96332.47
2023-03-24T11:58:29.015Z,96349.56
2023-03-24T12:03:39.826Z,96353.03
2023-03-24T12:09:10.781Z,96350.41
2023-03-24T12:14:23.317Z,96328.78
2023-03-24T12:19:47.381Z,96327.31
2023-03-24T12:25:16.708Z,96334.78
2023-03-24T12:30:21.849Z,96335.09
2023-03-24T12:35:34.060Z,96320.94
2023-03-24T12:40:49.320Z,96308.28
2023-03-24T12:45:54.234Z,96330.72
2023-03-24T12:51:09.764Z,96342.59
2023-03-24T12:56:31.231Z,96322.63
2023-03-24T13:01:38.911Z,96304.56
2023-03-24T13:06:53.198Z,96318.03
2023-03-24T13:12:18.646Z,96302.69
2023-03-24T13:17:31.791Z,96292.44
2023-03-24T13:22:36.488Z,96283.03
2023-03-24T13:27:41.250Z,96289.41
2023-03-24T13:32:49.134Z,96294.09
2023-03-24T13:37:57.356Z,96294.91
2023-03-24T13:43:13.485Z,96294.75
2023-03-24T13:48:23.517Z,96285.50
2023-03-24T13:53:45.764Z,96280.31
2023-03-24T13:58:51.027Z,96278.53
2023-03-24T14:04:20.723Z,96280.09
2023-03-24T14:09:32.942Z,96293.94
2023-03-24T14:14:55.814Z,96260.13
2023-03-24T14:20:05.106Z,96253.63
2023-03-24T14:25:23.587Z,96263.75
2023-03-24T14:30:37.956Z,96253.72
2023-03-24T14:35:45.705Z,96249.31
2023-03-24T14:40:56.632Z,96245.59
2023-03-24T14:46:25.637Z,96250.31
2023-03-24T14:51:58.844Z,96248.72
2023-03-24T14:57:01.922Z,96250.31
2023-03-24T15:02:28.189Z,96252.59
2023-03-24T15:07:30.160Z,96267.34
2023-03-24T15:12:32.611Z,96246.75
2023-03-24T15:17:34.458Z,96257.28
2023-03-24T15:22:42.865Z,96259.75
2023-03-24T15:27:53.898Z,96256.50
2023-03-24T15:32:55.790Z,96268.53
2023-03-24T15:37:57.583Z,96276.94
2023-03-24T15:43:02.272Z,96267.69
2023-03-24T15:48:12.779Z,96255.19
2023-03-24T15:53:14.456Z,96233.59
2023-03-24T15:58:28.440Z,96223.03
2023-03-24T16:03:32.273Z,96254.16
2023-03-24T16:08:38.848Z,96262.78
2023-03-24T16:13:45.576Z,96288.53
2023-03-24T16:18:48.841Z,96283.66
2023-03-24T16:23:52.646Z,96286.84
2023-03-24T16:28:56.897Z,96276.28
2023-03-24T16:33:59.300Z,96276.91
2023-03-24T16:39:01.683Z,96307.44
2023-03-24T16:44:03.784Z,96300.97
2023-03-24T16:49:07.028Z,96303.22
2023-03-24T16:54:09.188Z,96231.88
2023-03-24T16:59:12.504Z,96243.50
2023-03-24T17:04:16.590Z,96283.97
2023-03-24T17:09:18.439Z,96321.78
2023-03-24T17:14:20.425Z,96323.66
2023-03-24T17:19:23.717Z,96326.66
2023-03-24T17:24:26.511Z,96341.91
2023-03-24T17:29:28.144Z,96345.38
2023-03-24T17:34:29.919Z,96339.06
2023-03-24T17:39:31.705Z,96356.72
2023-03-24T17:44:33.821Z,96360.72
2023-03-24T17:49:35.591Z,96363.38
2023-03-24T17:54:37.310Z,96352.88
2023-03-24T17:59:39.195Z,96349.50
2023-03-24T18:04:41.004Z,96347.50
2023-03-24T18:09:42.704Z,96347.69
2023-03-24T18:14:45.504Z,96351.56
2023-03-24T18:19:47.188Z,96364.41
2023-03-24T18:24:48.929Z,96369.91
2023-03-24T18:29:51.047Z,96376.41
2023-03-24T18:34:53.156Z,96387.63
2023-03-24T18:39:54.915Z,96386.19
2023-03-24T18:44:56.657Z,96398.84
2023-03-24T18:49:58.357Z,96388.03
2023-03-24T18:55:02.422Z,96391.31
2023-03-24T19:00:09.290Z,96383.44
2023-03-24T19:05:12.739Z,96391.00
2023-03-24T19:10:14.616Z,96404.13
2023-03-24T19:15:18.334Z,96409.22
2023-03-24T19:20:19.990Z,96414.78
2023-03-24T19:25:22.832Z,96431.69
2023-03-24T19:30:24.444Z,96433.44
2023-03-24T19:35:26.177Z,96442.59
2023-03-24T19:40:28.620Z,96460.31
2023-03-24T19:45:30.604Z,96470.13
2023-03-24T19:50:32.650Z,96458.00
2023-03-24T19:55:35.996Z,96465.78
2023-03-24T20:00:37.740Z,96458.53
2023-03-24T20:05:39.469Z,96461.06
2023-03-24T20:10:41.340Z,96475.50
2023-03-24T20:15:46.120Z,96480.03
2023-03-24T20:20:48.274Z,96464.22
2023-03-24T20:25:50.481Z,96483.00
2023-03-24T20:30:58.332Z,96468.31
2023-03-24T20:36:00.171Z,96471.41
2023-03-24T20:41:05.311Z,96469.56
2023-03-24T20:46:09.227Z,96472.47
2023-03-24T20:51:11.675Z,96464.81
2023-03-24T20:56:15.392Z,96476.13
2023-03-24T21:01:23.782Z,96456.13
2023-03-24T21:06:25.677Z,96468.78
2023-03-24T21:11:30.684Z,96461.75
2023-03-24T21:16:33.977Z,96477.16
2023-03-24T21:21:36.485Z,96468.69
2023-03-24T21:26:38.179Z,96481.13
2023-03-24T21:31:41.713Z,96489.19
2023-03-24T21:36:43.628Z,96493.41
2023-03-24T21:41:45.724Z,96496.75
2023-03-24T21:46:48.062Z,96497.91
2023-03-24T21:51:54.671Z,96494.44
2023-03-24T21:56:56.510Z,96493.03
2023-03-24T22:01:58.591Z,96501.34
2023-03-24T22:07:06.349Z,96495.38
2023-03-24T22:12:08.070Z,96504.75
2023-03-24T22:17:09.791Z,96508.59
2023-03-24T22:22:11.536Z,96517.94
2023-03-24T22:27:13.195Z,96525.03
2023-03-24T22:32:14.918Z,96531.34
2023-03-24T22:37:17.194Z,96527.78
2023-03-24T22:42:18.879Z,96526.16
2023-03-24T22:47:20.779Z,96525.59
2023-03-24T22:52:22.653Z,96535.72
2023-03-24T22:57:24.318Z,96548.66
2023-03-24T23:02:27.116Z,96545.06
2023-03-24T23:07:29.567Z,96559.06
2023-03-24T23:12:31.437Z,96562.09
2023-03-24T23:17:34.647Z,96559.19
2023-03-24T23:22:38.262Z,96559.84
2023-03-24T23:27:40.724Z,96557.59
2023-03-24T23:32:44.010Z,96574.91
2023-03-24T23:37:46.453Z,96571.38
2023-03-24T23:42:49.233Z,96573.56
2023-03-24T23:47:52.228Z,96579.34
2023-03-24T23:52:54.150Z,96570.34
2023-03-24T23:57:55.890Z,96572.25
